Time;durP1;ratioP1;P1;durP2;ratioP2;P2;SDS_P1;SDS_P2;PMS_P1;PMS_P2;Temp;Humidity;BMP_temperature;BMP_pressure;BME280_temperature;BME280_humidity;BME280_pressure;Samples;Min_cycle;Max_cycle;Signal;HPM_P1;HPM_P2
2023/04/03 00:01:24;;;;;;;6.75;2.00;;;;;;;-0.15;77.34;102432.19;7400207;19;20078;-68
2023/04/03 00:03:53;;;;;;;4.75;1.85;;;;;;;-0.18;77.57;102432.94;7398336;19;20420;-68
2023/04/03 00:06:21;;;;;;;6.97;1.67;;;;;;;-0.21;77.83;102425.03;7398023;19;20082;-68
2023/04/03 00:08:50;;;;;;;7.32;1.60;;;;;;;-0.22;77.81;102430.13;7399950;19;20085;-68
2023/04/03 00:11:22;;;;;;;8.57;2.17;;;;;;;-0.26;77.92;102434.22;7399849;19;20081;-68
2023/04/03 00:13:51;;;;;;;4.57;1.80;;;;;;;-0.29;78.12;102431.50;7397742;19;20018;-68
2023/04/03 00:16:19;;;;;;;7.85;2.10;;;;;;;-0.33;78.07;102437.31;7399643;19;20081;-68
2023/04/03 00:18:48;;;;;;;6.15;2.33;;;;;;;-0.36;78.04;102426.84;7399234;19;20098;-68
2023/04/03 00:21:17;;;;;;;10.23;2.95;;;;;;;-0.40;78.25;102430.09;7399113;19;20078;-68
2023/04/03 00:23:45;;;;;;;8.18;3.40;;;;;;;-0.43;78.44;102433.41;7397218;19;20014;-69
2023/04/03 00:26:14;;;;;;;8.48;2.75;;;;;;;-0.45;78.51;102432.41;7397779;19;20086;-69
2023/04/03 00:28:45;;;;;;;6.03;2.70;;;;;;;-0.47;78.87;102438.31;7396900;19;20082;-68
2023/04/03 00:31:16;;;;;;;10.60;2.72;;;;;;;-0.49;78.82;102430.50;7397156;19;20074;-69
2023/04/03 00:33:44;;;;;;;6.03;2.08;;;;;;;-0.52;78.83;102441.56;7397081;19;20093;-69
2023/04/03 00:36:14;;;;;;;9.60;1.83;;;;;;;-0.55;79.09;102440.50;7398912;19;20074;-68
2023/04/03 00:38:43;;;;;;;7.10;2.10;;;;;;;-0.57;79.15;102442.09;7398506;19;20035;-69
2023/04/03 00:41:11;;;;;;;4.85;2.05;;;;;;;-0.60;79.30;102441.97;7398734;19;20078;-68
2023/04/03 00:43:40;;;;;;;8.82;2.40;;;;;;;-0.63;79.20;102441.78;7397227;19;20576;-68
2023/04/03 00:46:11;;;;;;;9.60;2.05;;;;;;;-0.67;79.51;102435.59;7397623;19;20427;-68
2023/04/03 00:48:43;;;;;;;12.15;2.53;;;;;;;-0.70;79.59;102438.00;7396121;19;20509;-70
2023/04/03 00:51:15;;;;;;;5.50;1.83;;;;;;;-0.72;79.63;102442.19;7398122;19;20501;-70
2023/04/03 00:53:49;;;;;;;7.18;2.30;;;;;;;-0.74;79.64;102448.97;7397544;19;20094;-70
2023/04/03 00:56:21;;;;;;;5.38;2.00;;;;;;;-0.77;79.84;102446.22;7397964;19;20031;-70
2023/04/03 00:58:55;;;;;;;8.30;1.80;;;;;;;-0.79;79.79;102453.00;7399525;19;20015;-70
2023/04/03 01:01:28;;;;;;;4.60;1.60;;;;;;;-0.82;79.86;102451.16;7395919;19;20024;-70
2023/04/03 01:03:58;;;;;;;6.85;2.03;;;;;;;-0.86;80.31;102447.53;7398447;19;20019;-70
2023/04/03 01:06:30;;;;;;;5.85;1.98;;;;;;;-0.88;80.14;102450.84;7401032;19;20011;-70
2023/04/03 01:08:59;;;;;;;7.38;1.60;;;;;;;-0.91;80.33;102453.22;7402401;19;20371;-70
2023/04/03 01:11:28;;;;;;;7.68;1.80;;;;;;;-0.93;80.29;102453.16;7399325;19;20082;-67
2023/04/03 01:13:56;;;;;;;5.20;1.80;;;;;;;-0.98;80.47;102442.59;7396439;19;20077;-68
2023/04/03 01:16:30;;;;;;;5.53;2.20;;;;;;;-0.99;80.37;102452.84;7397658;19;20018;-69
2023/04/03 01:18:58;;;;;;;7.47;1.60;;;;;;;-1.01;80.42;102452.75;7397944;19;20014;-70
2023/04/03 01:21:53;;;;;;;5.72;2.10;;;;;;;-1.05;80.37;102450.81;7397080;19;20493;-70
2023/04/03 01:24:41;;;;;;;4.90;1.65;;;;;;;-1.08;80.56;102444.63;7394566;19;20509;-71
2023/04/03 01:27:12;;;;;;;6.95;1.98;;;;;;;-1.11;80.56;102447.00;7395557;19;20018;-70
2023/04/03 01:29:43;;;;;;;9.23;2.00;;;;;;;-1.16;80.93;102446.78;7397548;19;20361;-69
2023/04/03 01:32:14;;;;;;;6.72;1.83;;;;;;;-1.18;80.97;102446.69;7397277;19;20027;-70
2023/04/03 01:34:43;;;;;;;8.35;2.25;;;;;;;-1.20;81.27;102458.63;7395629;19;20014;-69
2023/04/03 01:37:11;;;;;;;3.85;1.75;;;;;;;-1.22;81.42;102457.63;7396537;19;20571;-71
2023/04/03 01:39:40;;;;;;;5.82;2.05;;;;;;;-1.23;81.61;102458.44;7396799;19;20074;-70
2023/04/03 01:42:08;;;;;;;8.75;2.90;;;;;;;-1.24;81.48;102453.19;7396465;19;20358;-70
2023/04/03 01:44:36;;;;;;;8.52;2.00;;;;;;;-1.25;81.48;102454.91;7395032;19;20082;-70
2023/04/03 01:47:08;;;;;;;5.28;1.63;;;;;;;-1.26;81.62;102460.84;7394955;19;20501;-70
2023/04/03 01:49:39;;;;;;;6.90;2.47;;;;;;;-1.28;81.51;102465.03;7395125;19;20086;-70
2023/04/03 01:52:07;;;;;;;8.25;2.00;;;;;;;-1.31;81.53;102462.28;7396083;19;20014;-70
2023/04/03 01:54:36;;;;;;;5.55;1.98;;;;;;;-1.34;81.96;102456.97;7394922;19;20074;-70
2023/04/03 01:57:04;;;;;;;6.35;2.00;;;;;;;-1.35;81.99;102457.78;7395985;19;20086;-69
2023/04/03 01:59:33;;;;;;;6.30;2.50;;;;;;;-1.38;81.79;102468.81;7395864;19;20536;-70
2023/04/03 02:02:01;;;;;;;6.72;2.15;;;;;;;-1.40;82.04;102469.50;7395859;19;20091;-70
2023/04/03 02:04:30;;;;;;;5.95;1.77;;;;;;;-1.43;82.16;102467.63;7396888;19;20109;-70
2023/04/03 02:07:01;;;;;;;3.95;1.58;;;;;;;-1.46;82.10;102470.06;7399630;19;20011;-71
2023/04/03 02:09:29;;;;;;;6.25;2.10;;;;;;;-1.49;82.18;102470.78;7395601;19;20520;-70
2023/04/03 02:11:58;;;;;;;3.85;1.90;;;;;;;-1.51;82.54;102469.78;7395817;19;20070;-69
2023/04/03 02:14:27;;;;;;;3.80;2.10;;;;;;;-1.53;82.24;102468.84;7393346;19;20020;-69
2023/04/03 02:16:56;;;;;;;5.80;2.08;;;;;;;-1.54;82.41;102467.06;7395459;19;20014;-71
2023/04/03 02:19:24;;;;;;;8.70;2.70;;;;;;;-1.57;82.45;102472.03;7401618;19;20039;-71
2023/04/03 02:21:53;;;;;;;4.50;1.60;;;;;;;-1.59;82.53;102472.75;7401455;19;20019;-71
2023/04/03 02:24:38;;;;;;;9.70;2.58;;;;;;;-1.61;82.56;102480.38;7394493;19;20011;-70
2023/04/03 02:27:07;;;;;;;9.50;2.22;;;;;;;-1.65;82.68;102488.75;7394010;19;20388;-70
2023/04/03 02:29:35;;;;;;;8.98;1.90;;;;;;;-1.69;82.57;102485.09;7395376;19;20032;-70
2023/04/03 02:32:04;;;;;;;8.50;2.38;;;;;;;-1.72;82.83;102491.75;7394826;19;20082;-69
2023/04/03 02:34:32;;;;;;;7.10;1.80;;;;;;;-1.76;82.83;102494.97;7393503;19;20094;-70
2023/04/03 02:37:01;;;;;;;7.47;2.30;;;;;;;-1.80;82.83;102499.03;7398056;19;20086;-70
2023/04/03 02:39:32;;;;;;;5.30;2.55;;;;;;;-1.82;83.11;102495.47;7402328;19;20078;-70
2023/04/03 02:42:00;;;;;;;6.68;2.30;;;;;;;-1.86;83.13;102499.59;7403266;19;20031;-69
2023/04/03 02:44:29;;;;;;;9.70;2.45;;;;;;;-1.88;83.11;102502.88;7399683;19;20476;-71
2023/04/03 02:46:57;;;;;;;12.48;2.13;;;;;;;-1.92;83.30;102499.25;7400795;19;20553;-70
2023/04/03 02:49:26;;;;;;;4.15;1.80;;;;;;;-1.95;83.13;102503.31;7402661;19;20244;-70
2023/04/03 02:51:54;;;;;;;6.78;2.22;;;;;;;-1.97;83.46;102516.09;7402140;19;20014;-71
2023/04/03 02:54:23;;;;;;;7.07;3.40;;;;;;;-2.00;83.29;102514.25;7400075;19;20022;-70
2023/04/03 02:56:54;;;;;;;6.43;1.92;;;;;;;-2.02;83.58;102513.25;7402317;19;20010;-69
2023/04/03 02:59:22;;;;;;;7.07;2.00;;;;;;;-2.02;83.71;102517.47;7398745;19;20082;-70
2023/04/03 03:01:51;;;;;;;6.72;1.92;;;;;;;-2.04;83.55;102514.84;7401934;19;20070;-69
2023/04/03 03:04:20;;;;;;;8.65;1.98;;;;;;;-2.05;83.79;102523.34;7398562;19;20418;-69
2023/04/03 03:06:49;;;;;;;4.95;2.05;;;;;;;-2.06;83.65;102520.69;7400614;19;20018;-69
2023/04/03 03:09:17;;;;;;;7.95;2.05;;;;;;;-2.08;83.57;102518.03;7401299;19;20029;-70
2023/04/03 03:11:45;;;;;;;11.57;3.97;;;;;;;-2.09;83.59;102518.81;7397972;19;20513;-71
2023/04/03 03:14:16;;;;;;;11.45;2.42;;;;;;;-2.10;83.55;102526.47;7398798;19;20023;-71
2023/04/03 03:16:45;;;;;;;6.55;2.17;;;;;;;-2.13;83.39;102517.75;7401675;19;20032;-71
2023/04/03 03:19:13;;;;;;;7.32;2.20;;;;;;;-2.16;83.44;102525.28;7401343;19;20031;-70
2023/04/03 03:21:42;;;;;;;6.15;1.77;;;;;;;-2.19;83.55;102525.09;7401373;19;20035;-71
2023/04/03 03:24:23;;;;;;;6.90;2.00;;;;;;;-2.20;83.84;102528.50;7398378;19;20086;-69
2023/04/03 03:26:52;;;;;;;5.80;1.60;;;;;;;-2.22;83.51;102532.66;7400473;19;20028;-70
2023/04/03 03:29:23;;;;;;;6.50;1.90;;;;;;;-2.24;83.41;102535.94;7400637;19;20022;-70
2023/04/03 03:31:51;;;;;;;6.65;1.88;;;;;;;-2.25;83.61;102529.00;7400779;19;20511;-69
2023/04/03 03:34:20;;;;;;;5.45;2.40;;;;;;;-2.27;83.51;102531.50;7398516;19;20399;-70
2023/04/03 03:36:49;;;;;;;6.53;2.15;;;;;;;-2.27;83.64;102536.63;7400824;19;20022;-70
2023/04/03 03:39:17;;;;;;;6.05;1.60;;;;;;;-2.28;83.46;102540.00;7400762;19;20022;-70
2023/04/03 03:41:46;;;;;;;4.53;1.88;;;;;;;-2.27;83.51;102534.06;7400672;19;20018;-70
2023/04/03 03:44:14;;;;;;;4.25;1.77;;;;;;;-2.27;83.47;102530.59;7398626;19;20022;-70
2023/04/03 03:46:45;;;;;;;5.90;1.90;;;;;;;-2.27;83.49;102531.50;7400529;19;20472;-70
2023/04/03 03:49:14;;;;;;;5.70;2.33;;;;;;;-2.26;83.81;102532.38;7399590;19;20018;-70
2023/04/03 03:51:43;;;;;;;5.60;1.75;;;;;;;-2.26;83.76;102528.13;7400538;19;20030;-70
2023/04/03 03:54:12;;;;;;;6.38;1.67;;;;;;;-2.26;83.63;102522.97;7398565;19;20035;-70
2023/04/03 03:56:41;;;;;;;5.78;1.98;;;;;;;-2.25;83.82;102529.91;7400132;19;20022;-70
2023/04/03 03:59:09;;;;;;;5.28;1.98;;;;;;;-2.24;84.05;102528.22;7399821;19;20011;-71
2023/04/03 04:01:38;;;;;;;5.95;1.60;;;;;;;-2.24;84.13;102531.66;7397583;19;20083;-70
2023/04/03 04:04:09;;;;;;;7.47;2.65;;;;;;;-2.22;84.21;102535.22;7398229;19;20023;-70
2023/04/03 04:06:37;;;;;;;10.30;2.60;;;;;;;-2.23;83.91;102527.41;7400042;19;20018;-70
2023/04/03 04:09:06;;;;;;;8.90;2.38;;;;;;;-2.23;83.90;102535.13;7399678;19;20027;-70
2023/04/03 04:11:35;;;;;;;6.47;2.58;;;;;;;-2.25;83.89;102527.34;7396974;19;20031;-70
2023/04/03 04:14:03;;;;;;;7.05;1.92;;;;;;;-2.26;83.51;102530.69;7397013;19;20018;-70
2023/04/03 04:16:31;;;;;;;9.15;2.75;;;;;;;-2.27;83.69;102534.06;7398945;19;20078;-70
2023/04/03 04:19:00;;;;;;;5.25;1.80;;;;;;;-2.28;83.65;102534.84;7398662;19;20011;-70
2023/04/03 04:21:31;;;;;;;3.17;1.60;;;;;;;-2.29;83.82;102533.06;7396710;19;20018;-71
2023/04/03 04:23:59;;;;;;;8.65;1.60;;;;;;;-2.30;83.57;102536.44;7397575;19;20025;-70
2023/04/03 04:26:28;;;;;;;6.63;2.60;;;;;;;-2.30;83.85;102539.91;7398636;19;20078;-70
2023/04/03 04:28:56;;;;;;;10.65;1.95;;;;;;;-2.30;83.55;102536.44;7396411;19;20497;-70
2023/04/03 04:31:25;;;;;;;6.13;1.90;;;;;;;-2.29;83.77;102548.50;7398762;19;20018;-71
2023/04/03 04:33:54;;;;;;;5.60;1.55;;;;;;;-2.30;83.82;102541.56;7397554;19;20021;-70
2023/04/03 04:36:22;;;;;;;6.72;1.92;;;;;;;-2.29;84.00;102553.63;7398296;19;20454;-70
2023/04/03 04:38:54;;;;;;;11.15;2.35;;;;;;;-2.29;83.85;102553.63;7395982;19;20015;-70
2023/04/03 04:41:23;;;;;;;7.22;1.80;;;;;;;-2.29;84.02;102558.78;7396634;19;20091;-70
2023/04/03 04:43:52;;;;;;;5.30;2.20;;;;;;;-2.31;83.69;102556.13;7396621;19;20011;-70
2023/04/03 04:46:21;;;;;;;14.95;4.57;;;;;;;-2.31;83.59;102557.81;7398413;19;20027;-70
2023/04/03 04:48:50;;;;;;;9.95;3.97;;;;;;;-2.33;83.56;102567.13;7395790;19;20039;-71
2023/04/03 04:51:19;;;;;;;13.73;5.20;;;;;;;-2.34;83.66;102565.34;7398015;19;20052;-70
2023/04/03 04:53:47;;;;;;;10.40;6.25;;;;;;;-2.34;84.16;102561.09;7396420;19;20422;-70
2023/04/03 04:56:18;;;;;;;14.60;5.95;;;;;;;-2.34;83.96;102566.25;7397311;19;20099;-70
2023/04/03 04:58:46;;;;;;;13.73;6.97;;;;;;;-2.36;84.06;102564.38;7397437;19;20485;-68
2023/04/03 05:01:15;;;;;;;16.13;7.53;;;;;;;-2.35;84.19;102569.59;7392742;19;20022;-70
2023/04/03 05:03:44;;;;;;;19.63;8.57;;;;;;;-2.35;84.51;102572.16;7395592;19;20106;-70
2023/04/03 05:06:12;;;;;;;21.20;9.50;;;;;;;-2.35;84.50;102567.03;7397404;19;20031;-70
2023/04/03 05:08:41;;;;;;;19.90;8.98;;;;;;;-2.34;84.38;102575.63;7396018;19;20014;-70
2023/04/03 05:11:09;;;;;;;10.88;5.45;;;;;;;-2.33;84.39;102577.41;7397869;19;20018;-73
2023/04/03 05:13:40;;;;;;;14.65;5.75;;;;;;;-2.35;84.41;102567.03;7395052;19;20642;-71
2023/04/03 05:16:09;;;;;;;6.70;4.35;;;;;;;-2.34;84.83;102573.94;7397629;19;20019;-71
2023/04/03 05:18:38;;;;;;;6.45;3.60;;;;;;;-2.34;84.67;102570.47;7397597;19;20502;-70
2023/04/03 05:21:07;;;;;;;13.65;3.05;;;;;;;-2.34;84.78;102578.19;7394932;19;20367;-71
2023/04/03 05:23:36;;;;;;;8.15;2.80;;;;;;;-2.33;84.79;102569.69;7396197;19;20015;-69
2023/04/03 05:26:04;;;;;;;13.32;3.00;;;;;;;-2.31;85.14;102580.97;7395485;19;20010;-70
2023/04/03 05:28:33;;;;;;;7.82;3.00;;;;;;;-2.30;85.11;102575.91;7394840;19;20022;-68
2023/04/03 05:31:04;;;;;;;7.03;2.53;;;;;;;-2.28;84.93;102582.84;7396924;19;20031;-70
2023/04/03 05:33:32;;;;;;;11.95;2.88;;;;;;;-2.27;85.20;102577.78;7396568;19;20070;-71
2023/04/03 05:36:05;;;;;;;5.05;2.58;;;;;;;-2.25;85.22;102576.19;7397041;19;20023;-71
2023/04/03 05:38:34;;;;;;;9.48;2.55;;;;;;;-2.31;85.26;102568.09;7397924;19;20340;-70
2023/04/03 05:41:03;;;;;;;8.98;3.60;;;;;;;-2.22;85.20;102576.38;7396266;19;20529;-69
2023/04/03 05:43:32;;;;;;;5.43;2.78;;;;;;;-2.20;85.25;102576.44;7394389;19;20022;-70
2023/04/03 05:46:03;;;;;;;9.95;3.17;;;;;;;-2.18;85.20;102586.03;7398838;19;20017;-69
2023/04/03 05:48:32;;;;;;;7.45;2.50;;;;;;;-2.15;85.24;102586.22;7401089;19;20103;-70
2023/04/03 05:51:01;;;;;;;7.63;2.25;;;;;;;-2.11;85.36;102584.75;7401028;19;20509;-71
2023/04/03 05:53:33;;;;;;;9.32;2.95;;;;;;;-2.08;85.55;102596.88;7396382;19;20019;-69
2023/04/03 05:56:02;;;;;;;8.30;2.33;;;;;;;-2.03;85.37;102598.06;7393943;19;20027;-70
2023/04/03 05:58:30;;;;;;;9.63;2.25;;;;;;;-2.00;85.41;102601.69;7395411;19;20022;-70
2023/04/03 06:00:59;;;;;;;9.68;2.95;;;;;;;-1.98;85.25;102599.22;7395861;19;20038;-69
2023/04/03 06:03:31;;;;;;;6.03;2.55;;;;;;;-1.92;85.31;102604.72;7395193;19;20031;-70
2023/04/03 06:05:59;;;;;;;7.32;2.58;;;;;;;-1.87;85.19;102604.97;7395594;19;20036;-70
2023/04/03 06:08:28;;;;;;;6.68;2.97;;;;;;;-1.82;85.30;102608.72;7393304;19;20027;-70
2023/04/03 06:10:57;;;;;;;8.88;2.72;;;;;;;-1.77;85.28;102606.41;7394587;19;20024;-71
2023/04/03 06:13:25;;;;;;;7.72;2.55;;;;;;;-1.72;85.50;102602.41;7394571;19;20026;-69
2023/04/03 06:15:54;;;;;;;10.32;2.50;;;;;;;-1.67;85.18;102609.63;7394955;19;20533;-71
2023/04/03 06:18:22;;;;;;;4.68;2.40;;;;;;;-1.60;85.21;102613.44;7394953;19;20042;-69
2023/04/03 06:20:53;;;;;;;11.95;1.95;;;;;;;-1.56;85.04;102612.81;7395090;19;20026;-70
2023/04/03 06:23:44;;;;;;;12.77;2.58;;;;;;;-1.48;84.74;102608.09;7394173;19;20014;-71
2023/04/03 06:26:19;;;;;;;10.60;2.97;;;;;;;-1.43;84.17;102610.94;7392659;19;20365;-71
2023/04/03 06:28:47;;;;;;;7.55;3.03;;;;;;;-1.35;84.12;102615.75;7393058;19;20212;-71
2023/04/03 06:31:16;;;;;;;6.88;2.22;;;;;;;-1.30;84.26;102605.72;7395362;19;20018;-71
2023/04/03 06:33:45;;;;;;;9.57;2.33;;;;;;;-1.19;84.04;102611.47;7394224;19;20018;-70
2023/04/03 06:36:19;;;;;;;9.52;3.15;;;;;;;-1.10;84.31;102613.66;7394072;19;20022;-70
2023/04/03 06:38:47;;;;;;;;;;;;;;;-1.02;83.19;102620.16;7393034;19;20031;-71
2023/04/03 06:41:17;;;;;;;11.98;3.05;;;;;;;-0.96;84.09;102612.78;7394972;19;19939;-70
2023/04/03 06:43:45;;;;;;;6.28;2.10;;;;;;;-0.87;83.74;102621.00;7393465;19;20040;-71
2023/04/03 06:46:18;;;;;;;6.95;2.35;;;;;;;-0.79;82.65;102616.25;7394572;19;20031;-71
2023/04/03 06:48:47;;;;;;;7.10;2.75;;;;;;;-0.69;83.26;102620.25;7393095;19;20019;-71
2023/04/03 06:51:23;;;;;;;7.28;2.33;;;;;;;-0.60;83.18;102631.03;7394383;19;20014;-72
2023/04/03 06:53:52;;;;;;;12.32;3.13;;;;;;;-0.52;82.65;102631.47;7392546;19;20040;-70
2023/04/03 06:56:22;;;;;;;8.30;2.40;;;;;;;-0.46;81.12;102634.38;7394322;19;20018;-71
2023/04/03 06:58:51;;;;;;;9.13;3.13;;;;;;;-0.37;80.50;102636.56;7393955;19;20018;-71
2023/04/03 07:01:21;;;;;;;7.18;2.17;;;;;;;-0.30;81.27;102625.78;7394749;19;20015;-70
2023/04/03 07:03:50;;;;;;;6.32;2.03;;;;;;;-0.21;78.95;102638.28;7392715;19;20081;-71
2023/04/03 07:06:22;;;;;;;10.57;2.35;;;;;;;-0.12;81.06;102643.03;7393422;19;20092;-71
2023/04/03 07:08:51;;;;;;;8.18;2.63;;;;;;;-0.04;81.26;102644.31;7392546;19;20022;-71
2023/04/03 07:11:20;;;;;;;6.55;1.75;;;;;;;0.07;80.70;102642.31;7394132;19;20045;-71
2023/04/03 07:13:48;;;;;;;8.48;1.95;;;;;;;0.16;78.21;102645.34;7392686;19;20023;-70
2023/04/03 07:16:17;;;;;;;4.35;1.70;;;;;;;0.24;78.14;102641.47;7393853;19;20094;-69
2023/04/03 07:18:45;;;;;;;2.28;1.60;;;;;;;0.33;77.78;102643.66;7393539;19;20094;-70
2023/04/03 07:21:14;;;;;;;9.18;2.00;;;;;;;0.40;78.25;102643.13;7393564;19;20022;-71
2023/04/03 07:23:45;;;;;;;6.28;1.90;;;;;;;0.48;77.81;102644.41;7394636;19;20022;-71
2023/04/03 07:26:20;;;;;;;6.38;1.73;;;;;;;0.60;76.73;102644.13;7399886;19;20007;-70
2023/04/03 07:28:50;;;;;;;6.15;1.63;;;;;;;0.73;74.31;102653.38;7399527;19;20396;-70
2023/04/03 07:31:19;;;;;;;7.75;1.85;;;;;;;0.83;71.59;102651.25;7398488;19;20015;-71
2023/04/03 07:33:48;;;;;;;7.07;1.58;;;;;;;0.92;72.70;102649.13;7400270;19;20018;-67
2023/04/03 07:36:20;;;;;;;9.85;2.95;;;;;;;1.00;72.80;102652.06;7400429;19;20431;-68
2023/04/03 07:38:51;;;;;;;7.22;2.17;;;;;;;1.11;73.61;102651.78;7401096;19;20023;-69
2023/04/03 07:41:22;;;;;;;4.00;1.33;;;;;;;1.21;70.68;102654.81;7400137;19;20015;-69
2023/04/03 07:43:52;;;;;;;6.93;1.65;;;;;;;1.32;71.90;102643.28;7399234;19;20022;-69
2023/04/03 07:46:21;;;;;;;8.70;1.90;;;;;;;1.44;68.86;102654.19;7398040;19;20010;-69
2023/04/03 07:48:49;;;;;;;3.33;1.30;;;;;;;1.56;71.51;102655.56;7398835;19;20022;-69
2023/04/03 07:51:18;;;;;;;4.43;1.50;;;;;;;1.67;69.78;102653.47;7400157;19;20023;-69
2023/04/03 07:53:47;;;;;;;6.43;1.58;;;;;;;1.77;69.94;102653.09;7397227;19;20503;-69
2023/04/03 07:56:20;;;;;;;6.13;1.30;;;;;;;1.88;66.81;102658.72;7399391;19;20027;-69
2023/04/03 07:58:48;;;;;;;5.30;1.50;;;;;;;1.97;66.94;102664.31;7400472;19;20018;-69
2023/04/03 08:01:17;;;;;;;3.95;1.65;;;;;;;2.05;68.40;102650.00;7399305;19;20094;-69
2023/04/03 08:03:45;;;;;;;6.72;1.63;;;;;;;2.15;65.54;102651.31;7398318;19;20023;-69
2023/04/03 08:06:14;;;;;;;6.47;1.80;;;;;;;2.23;62.70;102649.06;7399342;19;20426;-70
2023/04/03 08:08:43;;;;;;;5.25;1.55;;;;;;;2.32;63.28;102648.56;7397854;19;20015;-69
2023/04/03 08:11:13;;;;;;;3.78;2.22;;;;;;;2.40;65.22;102655.84;7399329;19;20022;-69
2023/04/03 08:13:44;;;;;;;6.30;1.77;;;;;;;2.50;60.75;102648.44;7397605;19;20010;-69
2023/04/03 08:16:15;;;;;;;7.28;1.20;;;;;;;2.57;58.70;102650.50;7398573;19;20014;-68
2023/04/03 08:18:43;;;;;;;2.78;1.40;;;;;;;2.62;61.33;102654.16;7398800;19;20376;-68
2023/04/03 08:21:13;;;;;;;5.65;1.45;;;;;;;2.67;60.34;102647.47;7398473;19;20018;-69
2023/04/03 08:23:43;;;;;;;4.55;1.60;;;;;;;2.71;62.10;102649.34;7397746;19;20057;-68
2023/04/03 08:26:13;;;;;;;4.78;1.95;;;;;;;2.74;62.57;102659.84;7396675;19;20493;-68
2023/04/03 08:28:45;;;;;;;3.70;1.58;;;;;;;2.73;63.09;102652.91;7397800;19;20484;-68
2023/04/03 08:31:18;;;;;;;5.07;1.40;;;;;;;2.71;62.41;102661.44;7399126;19;20031;-68
2023/04/03 08:33:47;;;;;;;6.22;1.70;;;;;;;2.69;61.66;102660.47;7399898;19;20011;-69
2023/04/03 08:36:21;;;;;;;4.25;1.42;;;;;;;2.69;61.23;102660.47;7397929;19;20509;-69
2023/04/03 08:38:50;;;;;;;5.97;1.40;;;;;;;2.72;59.03;102650.25;7398807;19;20014;-68
2023/04/03 08:41:30;;;;;;;6.85;1.73;;;;;;;2.76;61.43;102650.41;7398372;19;20078;-69
2023/04/03 08:44:07;;;;;;;8.23;2.22;;;;;;;2.86;60.33;102648.22;7396053;19;20037;-68
2023/04/03 08:46:48;;;;;;;5.07;1.88;;;;;;;2.96;59.58;102645.19;7398715;19;20024;-67
2023/04/03 08:49:26;;;;;;;4.30;2.17;;;;;;;3.05;60.59;102648.13;7396589;19;20014;-69
2023/04/03 08:51:56;;;;;;;5.20;1.38;;;;;;;3.10;59.64;102650.91;7397718;19;20015;-69
2023/04/03 08:54:31;;;;;;;3.42;1.08;;;;;;;3.12;58.88;102651.84;7395820;19;20035;-69
2023/04/03 08:57:02;;;;;;;7.72;1.80;;;;;;;3.09;58.74;102644.81;7396611;19;20014;-71
2023/04/03 08:59:37;;;;;;;7.05;1.45;;;;;;;3.13;56.90;102655.34;7397237;19;20481;-69
2023/04/03 09:02:17;;;;;;;4.85;1.20;;;;;;;3.13;55.88;102648.44;7398000;19;20019;-69
2023/04/03 09:04:45;;;;;;;4.43;1.10;;;;;;;3.14;57.21;102649.34;7395514;19;20018;-69
2023/04/03 09:07:23;;;;;;;5.78;1.30;;;;;;;3.15;53.58;102648.50;7397024;19;20537;-70
2023/04/03 09:09:52;;;;;;;3.92;1.27;;;;;;;3.20;56.97;102637.47;7395586;19;20022;-69
2023/04/03 09:12:27;;;;;;;6.55;1.33;;;;;;;3.29;55.63;102641.28;7395452;19;20075;-68
2023/04/03 09:15:05;;;;;;;5.40;1.48;;;;;;;3.35;52.18;102642.38;7395093;19;20372;-70
2023/04/03 09:17:45;;;;;;;4.28;1.35;;;;;;;3.39;52.01;102662.41;7396462;19;20015;-70
2023/04/03 09:20:27;;;;;;;2.72;1.17;;;;;;;3.34;52.82;102643.19;7395305;19;20460;-69
2023/04/03 09:22:55;;;;;;;5.35;1.13;;;;;;;3.31;53.53;102644.78;7394939;19;20378;-69
2023/04/03 09:25:28;;;;;;;5.82;1.42;;;;;;;3.25;54.43;102650.63;7394854;19;20021;-69
2023/04/03 09:27:56;;;;;;;4.47;1.88;;;;;;;3.23;54.82;102657.47;7396698;19;20014;-69
2023/04/03 09:30:28;;;;;;;3.75;1.40;;;;;;;3.24;53.32;102646.25;7395380;19;20093;-69
2023/04/03 09:32:58;;;;;;;2.53;0.90;;;;;;;3.28;54.33;102650.75;7395461;19;20384;-69
2023/04/03 09:35:30;;;;;;;3.20;1.17;;;;;;;3.34;54.78;102650.97;7397067;19;20018;-69
2023/04/03 09:38:02;;;;;;;3.33;1.10;;;;;;;3.38;53.22;102660.66;7397301;19;20031;-69
2023/04/03 09:40:38;;;;;;;4.22;1.25;;;;;;;3.44;53.07;102649.63;7397466;19;20035;-69
2023/04/03 09:43:25;;;;;;;1.83;0.98;;;;;;;3.52;53.38;102660.31;7396033;19;20022;-69
2023/04/03 09:45:58;;;;;;;2.17;0.93;;;;;;;3.58;51.96;102657.94;7393495;19;20014;-69
2023/04/03 09:48:28;;;;;;;1.73;0.77;;;;;;;3.64;54.26;102652.09;7396428;19;20018;-68
2023/04/03 09:50:59;;;;;;;2.25;1.10;;;;;;;3.67;49.50;102658.28;7396620;19;20022;-69
2023/04/03 09:53:38;;;;;;;3.05;1.02;;;;;;;3.73;49.47;102653.31;7395861;19;20516;-68
2023/04/03 09:56:23;;;;;;;5.20;1.42;;;;;;;3.80;49.89;102650.97;7394916;19;20019;-68
2023/04/03 09:58:53;;;;;;;2.30;1.25;;;;;;;3.84;53.28;102637.25;7396470;19;20014;-68
2023/04/03 10:01:30;;;;;;;4.32;1.40;;;;;;;3.88;49.58;102645.22;7395882;19;20014;-68
2023/04/03 10:04:11;;;;;;;3.15;1.15;;;;;;;3.95;52.09;102643.72;7396645;19;20465;-68
2023/04/03 10:06:46;;;;;;;2.67;1.00;;;;;;;3.94;49.27;102644.53;7396333;19;20031;-68
2023/04/03 10:09:23;;;;;;;2.95;0.98;;;;;;;3.93;50.41;102637.59;7395357;19;20019;-68
2023/04/03 10:12:04;;;;;;;4.28;0.98;;;;;;;3.92;49.44;102634.09;7394196;19;20033;-68
2023/04/03 10:14:33;;;;;;;3.42;1.27;;;;;;;3.98;51.88;102636.06;7393549;19;20033;-69
2023/04/03 10:17:17;;;;;;;3.33;1.30;;;;;;;4.02;52.11;102639.63;7395025;19;20018;-68
2023/04/03 10:19:50;;;;;;;5.67;1.97;;;;;;;4.08;52.82;102630.34;7394913;19;20098;-68
2023/04/03 10:22:24;;;;;;;4.78;1.50;;;;;;;4.15;51.06;102638.38;7394755;19;20788;-68
2023/04/03 10:25:04;;;;;;;7.53;2.47;;;;;;;4.23;52.05;102621.31;7393067;19;20026;-69
2023/04/03 10:27:44;;;;;;;4.90;1.38;;;;;;;4.34;52.08;102626.91;7395274;19;20018;-68
2023/04/03 10:30:35;;;;;;;2.42;1.27;;;;;;;4.40;49.55;102621.91;7394242;19;20023;-68
2023/04/03 10:33:20;;;;;;;2.10;1.13;;;;;;;4.50;52.66;102616.19;7394381;19;20027;-69
2023/04/03 10:36:03;;;;;;;2.47;0.90;;;;;;;4.56;50.23;102613.78;7394558;19;20036;-69
2023/04/03 10:38:42;;;;;;;2.25;1.10;;;;;;;4.68;52.87;102612.44;7393064;19;20014;-69
2023/04/03 10:41:19;;;;;;;4.82;1.30;;;;;;;4.84;50.41;102595.59;7398922;19;20014;-69
2023/04/03 10:43:55;;;;;;;3.08;1.05;;;;;;;4.99;48.91;102608.19;7395129;19;20015;-69
2023/04/03 10:46:30;;;;;;;3.47;1.10;;;;;;;5.07;50.66;102593.72;7392706;19;20031;-69
2023/04/03 10:49:20;;;;;;;2.67;1.10;;;;;;;5.10;49.50;102604.22;7393901;19;20476;-69
2023/04/03 10:51:53;;;;;;;4.32;1.40;;;;;;;5.12;47.78;102605.16;7392979;19;20019;-68
2023/04/03 10:54:27;;;;;;;4.32;1.52;;;;;;;5.12;51.54;102599.03;7392506;19;20036;-69
2023/04/03 10:56:57;;;;;;;;;;;;;;;5.11;45.83;102605.97;7394026;19;20015;-68
2023/04/03 10:59:30;;;;;;;4.75;1.95;;;;;;;5.02;46.03;102598.78;7401880;19;19919;-69
2023/04/03 11:02:02;;;;;;;2.35;1.20;;;;;;;4.92;49.94;102590.66;7399005;19;20430;-67
2023/04/03 11:04:37;;;;;;;4.57;1.90;;;;;;;4.81;48.33;102592.91;7398977;19;20018;-68
2023/04/03 11:07:13;;;;;;;5.13;1.20;;;;;;;4.77;48.85;102581.50;7401880;19;20010;-68
2023/04/03 11:09:46;;;;;;;2.45;1.23;;;;;;;4.71;46.02;102581.31;7399980;19;20037;-68
2023/04/03 11:12:19;;;;;;;3.22;1.33;;;;;;;4.67;47.63;102589.84;7398176;19;20082;-68
2023/04/03 11:14:50;;;;;;;1.83;1.00;;;;;;;4.63;49.06;102578.47;7398520;19;20026;-68
2023/04/03 11:17:30;;;;;;;3.10;1.42;;;;;;;4.68;49.48;102589.91;7401364;19;20032;-69
2023/04/03 11:20:08;;;;;;;5.80;1.27;;;;;;;4.77;45.40;102583.25;7398520;19;20014;-68
2023/04/03 11:22:41;;;;;;;4.57;1.48;;;;;;;4.79;47.35;102581.56;7398226;19;20015;-69
2023/04/03 11:25:21;;;;;;;3.80;1.13;;;;;;;4.85;48.88;102576.56;7400030;19;21250;-70
2023/04/03 11:27:53;;;;;;;4.15;1.50;;;;;;;4.95;45.39;102588.13;7401017;19;20048;-69
2023/04/03 11:30:25;;;;;;;2.47;1.00;;;;;;;5.00;48.10;102586.56;7398389;19;20026;-69
2023/04/03 11:33:06;;;;;;;2.70;1.00;;;;;;;4.90;43.79;102577.56;7400406;19;20074;-69
2023/04/03 11:35:37;;;;;;;2.95;1.48;;;;;;;4.85;44.28;102586.94;7400510;19;20015;-69
2023/04/03 11:38:08;;;;;;;2.58;1.02;;;;;;;4.82;47.98;102582.53;7400373;19;20489;-69
2023/04/03 11:40:40;;;;;;;2.78;1.13;;;;;;;4.85;48.63;102576.56;7400353;19;20031;-69
2023/04/03 11:43:22;;;;;;;3.28;1.20;;;;;;;4.89;45.50;102581.00;7400086;19;20019;-69
2023/04/03 11:45:58;;;;;;;1.88;1.00;;;;;;;4.90;47.24;102577.56;7400662;19;20033;-69
2023/04/03 11:48:52;;;;;;;2.50;1.02;;;;;;;4.96;46.85;102584.69;7398612;19;20063;-68